createdAt,value
2018-06-28T00:00:58.362Z,3.80
2018-06-28T00:03:27.658Z,3.80
2018-06-28T00:05:56.785Z,4.27
2018-06-28T00:08:26.141Z,3.90
2018-06-28T00:10:55.534Z,4.37
2018-06-28T00:13:24.984Z,4.20
2018-06-28T00:15:54.439Z,4.17
2018-06-28T00:18:23.803Z,4.70
2018-06-28T00:20:53.166Z,3.93
2018-06-28T00:23:22.496Z,4.43
2018-06-28T00:25:51.915Z,4.70
2018-06-28T00:28:21.270Z,4.30
2018-06-28T00:30:50.594Z,4.20
2018-06-28T00:33:27.462Z,4.27
2018-06-28T00:35:56.831Z,4.90
2018-06-28T00:38:26.169Z,4.40
2018-06-28T00:40:55.560Z,5.23
2018-06-28T00:43:24.972Z,5.10
2018-06-28T00:45:54.370Z,4.87
2018-06-28T00:48:23.826Z,5.17
2018-06-28T00:50:53.174Z,4.47
2018-06-28T00:53:23.641Z,4.17
2018-06-28T00:55:52.669Z,4.23
2018-06-28T00:58:22.026Z,4.37
2018-06-28T01:00:51.353Z,4.03
2018-06-28T01:03:25.054Z,4.63
2018-06-28T01:05:54.535Z,4.53
2018-06-28T01:08:23.995Z,4.33
2018-06-28T01:10:53.334Z,4.87
2018-06-28T01:13:24.754Z,4.53
2018-06-28T01:15:54.076Z,4.50
2018-06-28T01:18:23.514Z,4.70
2018-06-28T01:20:52.826Z,5.10
2018-06-28T01:23:27.066Z,4.63
2018-06-28T01:25:56.165Z,4.80
2018-06-28T01:28:25.525Z,5.13
2018-06-28T01:30:54.929Z,4.63
2018-06-28T01:33:24.439Z,4.57
2018-06-28T01:35:53.838Z,4.53
2018-06-28T01:38:23.122Z,4.33
2018-06-28T01:40:52.514Z,4.60
2018-06-28T01:43:49.822Z,4.63
2018-06-28T01:46:19.574Z,4.50
2018-06-28T01:48:48.933Z,4.73
2018-06-28T01:51:19.401Z,4.73
2018-06-28T01:53:48.759Z,4.73
2018-06-28T01:56:18.182Z,5.40
2018-06-28T01:58:47.257Z,4.87
2018-06-28T02:01:31.094Z,4.90
2018-06-28T02:04:00.443Z,4.60
2018-06-28T02:06:29.778Z,4.70
2018-06-28T02:08:59.150Z,4.87
2018-06-28T02:11:28.582Z,4.67
2018-06-28T02:13:57.901Z,5.07
2018-06-28T02:16:27.194Z,5.40
2018-06-28T02:18:56.564Z,5.43
2018-06-28T02:21:33.502Z,5.03
2018-06-28T02:24:02.654Z,4.87
2018-06-28T02:26:32.109Z,5.30
2018-06-28T02:29:01.446Z,5.50
2018-06-28T02:31:42.572Z,5.83
2018-06-28T02:34:11.893Z,5.27
2018-06-28T02:36:41.274Z,4.87
2018-06-28T02:39:10.582Z,5.30
2018-06-28T02:42:00.815Z,4.80
2018-06-28T02:44:30.177Z,5.07
2018-06-28T02:46:59.253Z,5.43
2018-06-28T02:49:28.585Z,5.70
2018-06-28T02:52:19.266Z,5.63
2018-06-28T02:54:48.641Z,5.57
2018-06-28T02:57:18.036Z,5.40
2018-06-28T02:59:47.354Z,5.97
2018-06-28T03:02:40.522Z,5.70
2018-06-28T03:05:09.906Z,5.47
2018-06-28T03:07:39.302Z,5.10
2018-06-28T03:10:08.750Z,4.63
2018-06-28T03:12:46.827Z,5.17
2018-06-28T03:15:16.226Z,5.07
2018-06-28T03:17:45.625Z,5.07
2018-06-28T03:20:14.942Z,5.77
2018-06-28T03:22:44.381Z,5.20
2018-06-28T03:25:13.694Z,5.20
2018-06-28T03:27:43.017Z,4.77
2018-06-28T03:30:12.358Z,4.83
2018-06-28T03:32:48.934Z,5.10
2018-06-28T03:35:18.234Z,5.43
2018-06-28T03:37:47.639Z,5.33
2018-06-28T03:40:17.063Z,5.37
2018-06-28T03:42:54.316Z,4.97
2018-06-28T03:45:23.699Z,4.70
2018-06-28T03:47:53.038Z,5.20
2018-06-28T03:50:22.362Z,5.93
2018-06-28T03:52:51.754Z,5.50
2018-06-28T03:55:21.307Z,6.07
2018-06-28T03:57:50.722Z,5.77
2018-06-28T04:00:20.085Z,5.87
2018-06-28T04:02:57.024Z,6.33
2018-06-28T04:05:26.767Z,5.60
2018-06-28T04:07:56.130Z,5.50
2018-06-28T04:10:26.141Z,5.73
2018-06-28T04:12:57.155Z,5.80
2018-06-28T04:15:26.587Z,5.70
2018-06-28T04:17:55.975Z,5.93
2018-06-28T04:20:25.015Z,5.80
2018-06-28T04:22:54.398Z,5.97
2018-06-28T04:25:24.197Z,5.70
2018-06-28T04:27:53.594Z,5.63
2018-06-28T04:30:23.017Z,5.67
2018-06-28T04:32:58.093Z,5.73
2018-06-28T04:35:28.870Z,5.53
2018-06-28T04:37:57.983Z,5.30
2018-06-28T04:40:27.297Z,4.90
2018-06-28T04:42:58.750Z,4.93
2018-06-28T04:45:28.173Z,5.30
2018-06-28T04:47:57.540Z,5.90
2018-06-28T04:50:26.871Z,5.30
2018-06-28T04:53:13.425Z,5.63
2018-06-28T04:55:42.768Z,5.57
2018-06-28T04:58:12.144Z,5.57
2018-06-28T05:00:41.534Z,5.80
2018-06-28T05:03:11.920Z,6.03
2018-06-28T05:05:41.314Z,5.57
2018-06-28T05:08:10.711Z,5.17
2018-06-28T05:10:40.146Z,5.60
2018-06-28T05:13:11.687Z,5.00
2018-06-28T05:15:41.106Z,5.63
2018-06-28T05:18:10.530Z,5.07
2018-06-28T05:20:39.931Z,4.20
2018-06-28T05:23:10.110Z,3.40
2018-06-28T05:25:39.194Z,3.67
2018-06-28T05:28:08.321Z,3.00
2018-06-28T05:30:37.406Z,3.10
2018-06-28T05:33:06.626Z,2.77
2018-06-28T05:35:35.765Z,2.90
2018-06-28T05:38:04.881Z,3.03
2018-06-28T05:40:33.992Z,3.10
2018-06-28T05:43:03.194Z,4.03
2018-06-28T05:45:32.428Z,3.40
2018-06-28T05:48:01.822Z,3.17
2018-06-28T05:50:31.198Z,2.97
2018-06-28T05:53:17.162Z,3.30
2018-06-28T05:55:46.591Z,3.00
2018-06-28T05:58:15.927Z,3.20
2018-06-28T06:00:45.361Z,3.07
2018-06-28T06:03:29.088Z,3.10
2018-06-28T06:05:58.443Z,3.10
2018-06-28T06:08:27.866Z,3.70
2018-06-28T06:10:57.235Z,3.03
2018-06-28T06:13:26.598Z,2.67
2018-06-28T06:15:55.947Z,3.00
2018-06-28T06:18:25.262Z,3.00
2018-06-28T06:20:54.602Z,3.40
2018-06-28T06:23:23.929Z,3.00
2018-06-28T06:25:53.263Z,3.17
2018-06-28T06:28:22.550Z,3.00
2018-06-28T06:30:51.947Z,3.00
2018-06-28T06:33:27.324Z,3.10
2018-06-28T06:35:56.674Z,3.33
2018-06-28T06:38:26.043Z,3.10
2018-06-28T06:40:55.414Z,3.00
2018-06-28T06:43:24.793Z,3.40
2018-06-28T06:45:54.139Z,3.10
2018-06-28T06:48:23.473Z,2.83
2018-06-28T06:50:52.832Z,3.13
2018-06-28T06:53:23.249Z,3.20
2018-06-28T06:55:52.714Z,3.17
2018-06-28T06:58:22.054Z,3.10
2018-06-28T07:00:51.698Z,2.90
2018-06-28T07:03:25.165Z,3.57
2018-06-28T07:05:54.530Z,3.20
2018-06-28T07:08:23.922Z,3.20
2018-06-28T07:10:53.339Z,3.20
2018-06-28T07:13:26.911Z,3.50
2018-06-28T07:15:56.333Z,3.50
2018-06-28T07:18:25.670Z,3.00
2018-06-28T07:20:55.039Z,2.73
2018-06-28T07:23:24.354Z,3.30
2018-06-28T07:25:53.701Z,3.03
2018-06-28T07:28:23.070Z,3.10
2018-06-28T07:30:52.400Z,3.20
2018-06-28T07:33:25.346Z,3.47
2018-06-28T07:35:54.762Z,3.00
2018-06-28T07:38:24.106Z,3.40
2018-06-28T07:40:53.539Z,3.40
2018-06-28T07:43:22.995Z,2.90
2018-06-28T07:45:52.354Z,3.20
2018-06-28T07:48:21.760Z,3.10
2018-06-28T07:50:51.142Z,3.40
2018-06-28T07:53:21.683Z,3.10
2018-06-28T07:55:51.103Z,2.93
2018-06-28T07:58:20.502Z,2.80
2018-06-28T08:00:49.858Z,3.07
2018-06-28T08:03:34.826Z,3.40
2018-06-28T08:06:04.221Z,3.17
2018-06-28T08:08:33.666Z,3.10
2018-06-28T08:11:08.758Z,2.73
2018-06-28T08:13:38.114Z,2.90
2018-06-28T08:16:07.527Z,2.90
2018-06-28T08:18:36.998Z,3.20
2018-06-28T08:21:06.398Z,2.70
2018-06-28T08:23:35.823Z,2.92
2018-06-28T08:26:05.215Z,3.10
2018-06-28T08:28:34.617Z,2.77
2018-06-28T08:31:04.018Z,2.90
2018-06-28T08:33:33.404Z,3.00
2018-06-28T08:36:02.813Z,3.30
2018-06-28T08:38:32.117Z,3.30
2018-06-28T08:41:01.494Z,3.07
2018-06-28T08:43:30.960Z,3.10
2018-06-28T08:46:00.322Z,3.20
2018-06-28T08:48:29.763Z,2.40
2018-06-28T08:50:59.091Z,2.90
2018-06-28T08:53:28.442Z,2.92
2018-06-28T08:55:57.794Z,3.10
2018-06-28T08:58:27.197Z,2.50
2018-06-28T09:00:56.559Z,3.02
2018-06-28T09:03:25.890Z,2.80
2018-06-28T09:05:55.315Z,2.58
2018-06-28T09:08:24.678Z,3.17
2018-06-28T09:10:54.134Z,2.83
2018-06-28T09:13:23.561Z,3.08
2018-06-28T09:15:52.766Z,2.72
2018-06-28T09:18:22.146Z,3.12
2018-06-28T09:20:51.518Z,2.70
2018-06-28T09:23:21.957Z,3.02
2018-06-28T09:25:51.381Z,2.87
2018-06-28T09:28:20.797Z,3.00
2018-06-28T09:30:50.341Z,2.70
2018-06-28T09:33:24.584Z,2.98
2018-06-28T09:35:54.028Z,2.65
2018-06-28T09:38:23.400Z,2.90
2018-06-28T09:40:52.834Z,3.10
2018-06-28T09:43:22.158Z,2.85
2018-06-28T09:45:51.537Z,2.70
2018-06-28T09:48:20.935Z,2.98
2018-06-28T09:50:50.329Z,2.30
2018-06-28T09:53:23.398Z,3.05
2018-06-28T09:55:53.110Z,3.02
2018-06-28T09:58:22.524Z,2.77
2018-06-28T10:00:52.051Z,2.45
2018-06-28T10:03:22.514Z,3.00
2018-06-28T10:05:51.949Z,2.70
2018-06-28T10:08:21.337Z,2.37
2018-06-28T10:10:50.718Z,2.70
2018-06-28T10:13:37.002Z,2.77
2018-06-28T10:16:06.702Z,2.70
2018-06-28T10:18:36.114Z,2.70
2018-06-28T10:21:05.542Z,2.70
2018-06-28T10:23:35.023Z,3.00
2018-06-28T10:26:04.735Z,2.85
2018-06-28T10:28:34.097Z,2.52
2018-06-28T10:31:17.386Z,2.80
2018-06-28T10:33:46.767Z,2.95
2018-06-28T10:36:16.138Z,2.58
2018-06-28T10:38:45.526Z,3.00
2018-06-28T10:41:17.002Z,2.65
2018-06-28T10:43:46.429Z,2.50
2018-06-28T10:46:15.791Z,2.60
2018-06-28T10:48:45.179Z,2.50
2018-06-28T10:51:14.718Z,2.60
2018-06-28T10:53:44.161Z,2.40
2018-06-28T10:56:13.539Z,2.35
2018-06-28T10:58:42.996Z,2.60
2018-06-28T11:01:42.621Z,2.70
2018-06-28T11:04:11.933Z,2.67
2018-06-28T11:06:41.327Z,2.20
2018-06-28T11:09:11.651Z,2.50
2018-06-28T11:11:42.064Z,2.90
2018-06-28T11:14:11.446Z,2.47
2018-06-28T11:16:40.843Z,2.75
2018-06-28T11:19:10.234Z,2.67
2018-06-28T11:21:47.626Z,2.87
2018-06-28T11:24:17.098Z,2.50
2018-06-28T11:26:46.415Z,2.60
2018-06-28T11:29:15.708Z,2.42
2018-06-28T11:31:46.139Z,2.65
2018-06-28T11:34:16.422Z,2.70
2018-06-28T11:36:45.826Z,2.40
2018-06-28T11:39:15.222Z,2.17
2018-06-28T11:41:51.485Z,2.70
2018-06-28T11:44:20.755Z,2.20
2018-06-28T11:46:50.090Z,1.98
2018-06-28T11:49:19.483Z,2.10
2018-06-28T11:51:49.034Z,2.02
2018-06-28T11:54:18.378Z,2.25
2018-06-28T11:59:17.617Z,2.30
2018-06-28T12:01:47.074Z,2.45
2018-06-28T12:04:17.970Z,2.10
2018-06-28T12:06:47.374Z,2.50
2018-06-28T12:09:17.325Z,2.25
2018-06-28T12:11:46.788Z,2.60
2018-06-28T12:14:32.846Z,2.00
2018-06-28T12:17:02.339Z,2.22
2018-06-28T12:19:31.765Z,1.90
2018-06-28T12:22:01.248Z,2.30
2018-06-28T12:24:36.467Z,2.62
2018-06-28T12:27:05.909Z,2.40
2018-06-28T12:29:36.080Z,2.70
2018-06-28T12:32:06.624Z,2.37
2018-06-28T12:34:47.999Z,2.10
2018-06-28T12:37:17.453Z,2.42
2018-06-28T12:39:46.888Z,2.20
2018-06-28T12:42:16.265Z,2.42
2018-06-28T12:44:45.695Z,2.15
2018-06-28T12:47:57.033Z,2.08
2018-06-28T12:50:26.421Z,2.12
2018-06-28T12:53:04.466Z,2.27
2018-06-28T12:56:19.248Z,2.40
2018-06-28T12:58:49.544Z,2.00
2018-06-28T13:01:18.965Z,2.20
2018-06-28T13:03:49.690Z,2.50
2018-06-28T13:06:19.777Z,2.30
2018-06-28T13:08:49.301Z,2.27
2018-06-28T13:11:18.768Z,2.25
2018-06-28T13:14:09.853Z,2.20
2018-06-28T13:16:39.583Z,2.50
2018-06-28T13:19:09.038Z,2.30
2018-06-28T13:21:38.462Z,2.83
2018-06-28T13:24:10.930Z,2.42
2018-06-28T13:26:40.370Z,2.30
2018-06-28T13:29:09.837Z,2.58
2018-06-28T13:31:39.302Z,2.60
2018-06-28T13:34:10.685Z,2.35
2018-06-28T13:36:40.034Z,2.42
2018-06-28T13:39:09.435Z,2.40
2018-06-28T13:41:39.230Z,2.30
2018-06-28T13:44:48.743Z,2.62
2018-06-28T13:47:18.158Z,2.58
2018-06-28T13:49:47.593Z,2.40
2018-06-28T13:52:17.076Z,2.30
2018-06-28T13:54:47.569Z,2.50
2018-06-28T13:57:17.394Z,2.55
2018-06-28T13:59:46.754Z,2.70
2018-06-28T14:02:16.194Z,2.12
2018-06-28T14:05:14.331Z,2.45
2018-06-28T14:07:43.842Z,2.30
2018-06-28T14:10:13.254Z,2.08
2018-06-28T14:12:48.377Z,2.62
2018-06-28T14:15:17.793Z,2.65
2018-06-28T14:17:47.213Z,2.62
2018-06-28T14:20:16.655Z,2.70
2018-06-28T14:22:48.462Z,2.60
2018-06-28T14:25:17.836Z,2.17
2018-06-28T14:27:47.217Z,2.23
2018-06-28T14:30:16.665Z,2.70
2018-06-28T14:32:48.077Z,2.50
2018-06-28T14:35:17.498Z,2.70
2018-06-28T14:37:46.881Z,2.27
2018-06-28T14:40:16.217Z,2.57
2018-06-28T14:42:51.509Z,2.47
2018-06-28T14:45:20.921Z,2.50
2018-06-28T14:47:50.362Z,2.83
2018-06-28T14:50:19.501Z,2.70
2018-06-28T14:52:49.986Z,2.60
2018-06-28T14:55:19.385Z,2.50
2018-06-28T14:57:48.469Z,2.90
2018-06-28T15:00:17.881Z,2.70
2018-06-28T15:02:53.172Z,2.60
2018-06-28T15:05:22.597Z,2.77
2018-06-28T15:07:52.028Z,2.50
2018-06-28T15:10:21.382Z,2.97
2018-06-28T15:13:13.161Z,3.10
2018-06-28T15:15:42.525Z,2.80
2018-06-28T15:18:11.949Z,2.57
2018-06-28T15:20:41.314Z,2.90
2018-06-28T15:23:22.410Z,2.80
2018-06-28T15:25:58.209Z,2.73
2018-06-28T15:28:27.593Z,3.23
2018-06-28T15:30:56.993Z,3.00
2018-06-28T15:33:27.442Z,3.07
2018-06-28T15:35:57.133Z,3.60
2018-06-28T15:38:26.570Z,3.20
2018-06-28T15:40:55.954Z,3.57
2018-06-28T15:43:47.135Z,3.03
2018-06-28T15:46:16.552Z,3.27
2018-06-28T15:48:45.953Z,3.57
2018-06-28T15:51:15.319Z,4.10
2018-06-28T15:53:55.353Z,4.23
2018-06-28T15:56:24.811Z,4.67
2018-06-28T15:58:54.140Z,4.83
2018-06-28T16:01:23.569Z,5.20
2018-06-28T16:03:58.757Z,5.13
2018-06-28T16:06:28.189Z,4.53
2018-06-28T16:08:57.654Z,4.87
2018-06-28T16:11:27.029Z,4.57
2018-06-28T16:13:58.475Z,4.50
2018-06-28T16:16:27.822Z,5.00
2018-06-28T16:18:57.200Z,4.87
2018-06-28T16:21:26.669Z,4.97
2018-06-28T16:23:56.233Z,4.90
2018-06-28T16:26:25.331Z,4.47
2018-06-28T16:28:54.674Z,4.93
2018-06-28T16:31:24.123Z,5.73
2018-06-28T16:34:11.462Z,5.60
2018-06-28T16:36:40.862Z,5.30
2018-06-28T16:39:11.303Z,4.57
2018-06-28T16:41:40.698Z,5.33
2018-06-28T16:44:11.177Z,4.23
2018-06-28T16:46:40.736Z,3.97
2018-06-28T16:49:10.045Z,4.23
2018-06-28T16:51:39.411Z,3.60
2018-06-28T16:55:07.454Z,3.60
2018-06-28T16:57:36.898Z,3.90
2018-06-28T17:00:07.162Z,3.87
2018-06-28T17:02:37.438Z,4.53
2018-06-28T17:05:06.909Z,3.90
2018-06-28T17:07:36.720Z,6.10
2018-06-28T17:10:06.222Z,10.67
2018-06-28T17:12:36.193Z,4.07
2018-06-28T17:15:05.777Z,4.40
2018-06-28T17:17:35.254Z,4.93
2018-06-28T17:20:04.792Z,3.87
2018-06-28T17:22:34.187Z,4.20
2018-06-28T17:25:03.513Z,4.10
2018-06-28T17:27:32.966Z,6.00
2018-06-28T17:30:02.367Z,6.20
2018-06-28T17:32:31.890Z,4.47
2018-06-28T17:35:01.253Z,3.93
2018-06-28T17:37:30.750Z,3.43
2018-06-28T17:40:00.105Z,3.30
2018-06-28T17:42:29.450Z,3.73
2018-06-28T17:44:58.824Z,5.93
2018-06-28T17:47:27.973Z,3.43
2018-06-28T17:49:57.325Z,3.67
2018-06-28T17:52:26.757Z,3.70
2018-06-28T17:54:56.134Z,3.57
2018-06-28T17:57:25.553Z,3.90
2018-06-28T17:59:54.940Z,3.83
2018-06-28T18:02:24.333Z,3.60
2018-06-28T18:04:53.761Z,3.73
2018-06-28T18:07:23.127Z,3.83
2018-06-28T18:09:52.540Z,3.73
2018-06-28T18:12:21.930Z,3.23
2018-06-28T18:15:25.743Z,3.57
2018-06-28T18:17:55.150Z,3.60
2018-06-28T18:20:24.558Z,4.10
2018-06-28T18:23:05.254Z,3.83
2018-06-28T18:25:34.690Z,3.67
2018-06-28T18:28:04.114Z,3.63
2018-06-28T18:30:33.514Z,3.43
2018-06-28T18:33:12.189Z,3.80
2018-06-28T18:35:41.327Z,3.63
2018-06-28T18:38:10.387Z,3.80
2018-06-28T18:40:39.486Z,3.80
2018-06-28T18:43:22.297Z,3.60
2018-06-28T18:45:51.559Z,3.67
2018-06-28T18:48:21.188Z,4.00
2018-06-28T18:50:50.433Z,3.80
2018-06-28T18:53:28.279Z,3.93
2018-06-28T18:55:57.684Z,4.00
2018-06-28T18:58:26.818Z,3.70
2018-06-28T19:00:55.961Z,4.40
2018-06-28T19:03:52.465Z,3.93
2018-06-28T19:06:21.716Z,4.10
2018-06-28T19:08:51.149Z,4.43
2018-06-28T19:11:20.573Z,4.23
2018-06-28T19:14:09.405Z,3.87
2018-06-28T19:16:43.969Z,4.13
2018-06-28T19:19:13.455Z,4.43
2018-06-28T19:21:47.904Z,3.90
2018-06-28T19:24:23.181Z,4.20
2018-06-28T19:26:52.653Z,4.33
2018-06-28T19:29:27.346Z,4.10
2018-06-28T19:32:01.897Z,3.87
2018-06-28T19:34:45.225Z,3.80
2018-06-28T19:37:19.822Z,4.23
2018-06-28T19:39:54.833Z,4.33
2018-06-28T19:42:29.283Z,3.80
2018-06-28T19:44:58.740Z,4.20
2018-06-28T19:47:28.161Z,4.30
2018-06-28T19:50:02.782Z,4.57
2018-06-28T19:52:41.149Z,4.17
2018-06-28T19:55:10.487Z,4.43
2018-06-28T19:57:39.945Z,4.67
2018-06-28T20:00:09.599Z,4.83
2018-06-28T20:03:02.801Z,4.87
2018-06-28T20:05:32.224Z,4.20
2018-06-28T20:08:01.694Z,4.63
2018-06-28T20:10:31.101Z,4.70
2018-06-28T20:13:14.486Z,4.90
2018-06-28T20:15:57.563Z,5.07
2018-06-28T20:18:31.994Z,5.10
2018-06-28T20:21:02.184Z,4.53
2018-06-28T20:23:32.149Z,4.30
2018-06-28T20:27:07.913Z,4.63
2018-06-28T20:29:42.619Z,4.70
2018-06-28T20:32:17.247Z,4.70
2018-06-28T20:35:00.857Z,5.23
2018-06-28T20:37:30.288Z,4.50
2018-06-28T20:39:59.612Z,5.27
2018-06-28T20:42:28.992Z,5.30
2018-06-28T20:44:58.377Z,5.07
2018-06-28T20:47:27.822Z,4.87
2018-06-28T20:49:57.290Z,4.60
2018-06-28T20:52:26.687Z,4.60
2018-06-28T20:54:56.087Z,5.10
2018-06-28T20:57:25.196Z,4.90
2018-06-28T20:59:54.549Z,5.03
2018-06-28T21:02:23.911Z,5.17
2018-06-28T21:04:54.162Z,5.00
2018-06-28T21:07:23.479Z,5.33
2018-06-28T21:09:52.831Z,5.70
2018-06-28T21:12:22.218Z,5.57
2018-06-28T21:15:33.501Z,5.63
2018-06-28T21:18:02.914Z,6.23
2018-06-28T21:20:32.313Z,5.90
2018-06-28T21:23:03.864Z,6.47
2018-06-28T21:25:33.349Z,6.03
2018-06-28T21:28:02.625Z,6.27
2018-06-28T21:30:31.968Z,5.80
2018-06-28T21:33:09.589Z,6.17
2018-06-28T21:35:39.047Z,5.80
2018-06-28T21:38:08.501Z,5.57
2018-06-28T21:40:37.865Z,5.77
2018-06-28T21:43:08.340Z,5.73
2018-06-28T21:45:37.785Z,5.97
2018-06-28T21:48:07.312Z,5.63
2018-06-28T21:50:36.679Z,5.53
2018-06-28T21:53:06.154Z,6.10
2018-06-28T21:55:35.537Z,5.93
2018-06-28T21:58:05.032Z,5.90
2018-06-28T22:00:37.155Z,6.30
2018-06-28T22:03:09.188Z,5.90
2018-06-28T22:05:38.526Z,5.90
2018-06-28T22:08:08.030Z,6.20
2018-06-28T22:10:37.363Z,5.90
2018-06-28T22:13:06.930Z,6.27
2018-06-28T22:15:36.530Z,6.27
2018-06-28T22:18:05.849Z,6.53
2018-06-28T22:20:35.254Z,6.37
2018-06-28T22:23:05.640Z,6.37
2018-06-28T22:25:34.985Z,5.83
2018-06-28T22:28:04.381Z,6.83
2018-06-28T22:30:33.797Z,6.13
2018-06-28T22:33:05.030Z,6.20
2018-06-28T22:35:34.409Z,6.30
2018-06-28T22:38:03.749Z,6.83
2018-06-28T22:40:33.108Z,6.30
2018-06-28T22:43:03.516Z,6.30
2018-06-28T22:45:33.695Z,6.70
2018-06-28T22:48:03.062Z,6.23
2018-06-28T22:50:32.504Z,7.40
2018-06-28T22:53:25.699Z,6.47
2018-06-28T22:55:56.757Z,6.53
2018-06-28T22:58:26.132Z,6.53
2018-06-28T23:00:55.468Z,5.97
2018-06-28T23:03:45.773Z,6.63
2018-06-28T23:06:15.206Z,7.07
2018-06-28T23:08:44.705Z,7.13
2018-06-28T23:11:15.797Z,6.60
2018-06-28T23:13:46.234Z,7.10
2018-06-28T23:16:15.621Z,6.90
2018-06-28T23:18:46.037Z,7.33
2018-06-28T23:21:15.745Z,6.87
2018-06-28T23:24:40.097Z,7.73
2018-06-28T23:27:09.183Z,8.10
2018-06-28T23:29:38.565Z,7.33
2018-06-28T23:32:07.926Z,6.67
2018-06-28T23:34:40.433Z,7.63
2018-06-28T23:37:09.821Z,8.33
2018-06-28T23:39:39.245Z,7.73
2018-06-28T23:42:08.608Z,7.80
2018-06-28T23:44:49.114Z,8.30
2018-06-28T23:47:18.554Z,7.87
2018-06-28T23:49:47.945Z,7.70
2018-06-28T23:52:17.302Z,7.30
2018-06-28T23:54:46.650Z,7.17
2018-06-28T23:57:16.024Z,7.87
2018-06-28T23:59:45.454Z,7.70
